Airfield :







YOU CAN JOIN US ON...

 
LOGIN :

Register | Disclaimer

   EN    FR    IT 

 









Legend :    VFR   Marginal VFR   IFR   Intensive IFR   Very Intensive IFR
Visi :
Ceiling :
>= 8 km
>= 3000ft
5 to 8 km
1000 to 3000 ft
1500m to 5 km
500 to 1000 ft
800 to 1500m
200 to 500 ft
< 800m
< 200 ft
Symbols :   Thunderstorms  Fog  Heavy snow  Heavy precipitations  Wind > 20 kt






- Airport Elevation : 1074 ft


KHIE - Mount Washington Regional

CURRENT METAR :
  • 120615Z AUTO 28007KT 1 1/4SM -SN BKN021 OVC031 M07/M11 A3032 RMK AO2 P0000 T10721111

EXPIRED METARs :
  • 120552Z AUTO 28009G15KT 9SM -SN BKN035 OVC045 M07/M13 A3030 RMK AO2 SNE05B46 SLP278 P0000 60000 T10671128 11033 21067 53037
  • 120519Z AUTO 26009G18KT 10SM BKN033 M07/M12 A3027 RMK AO2 SNE05 P0000 T10671122
  • 120503Z AUTO 26008G19KT 7SM -SN BKN025 OVC031 M07/M11 A3026 RMK AO2 P0000 T10671111
  • 120452Z AUTO 28013G20KT 2SM -SN BKN025 BKN034 OVC047 M07/M10 A3025 RMK AO2 SNB38 SLP264 P0000 T10671100 410171094
  • 120352Z AUTO 26006KT 10SM BKN033 BKN045 BKN080 M06/M11 A3021 RMK AO2 SNE02 SLP250 P0000 T10561106

TAF KHIE
Valid from the 12 at 06:00 until the 13 at 06:00 UTC


120520Z 1206/1306 26011KT P6SM VCSH BKN040
TEMPO 1206/1208 2SM -SHSN BKN025
FM120800 26010KT P6SM SCT040
FM122200 00000KT P6SM SCT250



MET'MAP, your aeronautical weather chart ! - Copyright ORBIFLY December 2007 - Disclaimer

ORBIFLY MET'MAP TEAM :

Programming & Development : Alexandra Zaïnal
Concept & original design : Baudouin d'Aumeries
Assistance for programming : Marc-Olivier Méhu
Technical & hardware support : Manuel Goepfert

Contact : metmap@orbifly.com




SOURCES & CREDITS :

   NOAA